»·PEaware :: N9401L KSBP-KSBA

N9401L :: KSBP-KSBA

FLIGHT INFORMATION

Flight Status: Arrived
Operator: Privately registered:
United States
More flights under this callsign
Pilot: Juan D. (11620)
Aircraft: PIPER PA-32 SARATOGA
(PA32)
More flights by this aircraft type
Origin: KSBP San Luis Co Regl
United States
Destination: KSBA Santa Barbara Mun
United States
More flights between these airports :: More routes between these airports
Route: +MQO GVO
File this flight plan on PilotEdge
Remarks:
Altitude:
(Current/Filed)
2,000ft
Speed:
(Current/Filed)
140kts
Departed: 29-Dec-19 02:25 PM
Arrived: 29-Dec-19 03:00 PM
Distance/Time
Traveled:
62nm/0:35
Distance/Time
To Go:
Arrived

Flight Plot

Page will automatically refresh every two minutes.


Map Options




Map Legend


Flown Route
Filed Route
Departure Airport
Arrival Airport
Navaid (VOR, NDB)
Fix

Horizontal Profiles

Position Reports

Time Latitude Longitude Heading Altitude Ground
Speed
29-Dec-19 14:09 35.238398 -120.639817 311 216ft 0kts
29-Dec-19 14:10 35.238398 -120.639817 311 216ft 0kts
29-Dec-19 14:11 35.238398 -120.639817 311 216ft 0kts
29-Dec-19 14:12 35.238398 -120.639817 311 216ft 0kts
29-Dec-19 14:13 35.238398 -120.639817 311 216ft 0kts
29-Dec-19 14:14 35.238398 -120.639817 311 216ft 0kts
29-Dec-19 14:15 35.238398 -120.639817 311 216ft 0kts
29-Dec-19 14:16 35.238398 -120.639817 311 216ft 0kts
29-Dec-19 14:17 35.238398 -120.639817 311 216ft 0kts
29-Dec-19 14:18 35.238401 -120.639820 311 216ft 0kts
29-Dec-19 14:19 35.237728 -120.639810 123 216ft 8kts
29-Dec-19 14:20 35.235807 -120.636397 125 216ft 23kts
29-Dec-19 14:21 35.233307 -120.632337 192 215ft 0kts
29-Dec-19 14:22 35.233307 -120.632337 192 215ft 0kts
29-Dec-19 14:23 35.232952 -120.632584 230 216ft 11kts
29-Dec-19 14:24 35.242078 -120.649178 303 290ft 140kts
29-Dec-19 14:25 35.267607 -120.690906 304 1173ft 170kts
29-Dec-19 14:26 35.296531 -120.737318 305 2125ft 166kts
29-Dec-19 14:27 35.322919 -120.778319 305 3294ft 139kts
29-Dec-19 14:28 35.345270 -120.811464 293 4771ft 115kts
29-Dec-19 14:29 35.330572 -120.847824 179 4991ft 158kts
29-Dec-19 14:30 35.291162 -120.817543 145 4985ft 174kts
29-Dec-19 14:31 35.253463 -120.781655 144 4984ft 176kts
29-Dec-19 14:32 35.216490 -120.746096 144 4984ft 176kts
29-Dec-19 14:33 35.178314 -120.709375 144 4984ft 176kts
29-Dec-19 14:34 35.139933 -120.672492 144 4986ft 177kts
29-Dec-19 14:35 35.101220 -120.635339 144 4991ft 178kts
29-Dec-19 14:36 35.062303 -120.598040 144 4999ft 179kts
29-Dec-19 14:37 35.025355 -120.562672 144 5008ft 181kts
29-Dec-19 14:38 34.989652 -120.528535 144 5015ft 183kts
29-Dec-19 14:39 34.955402 -120.495822 144 5020ft 184kts
29-Dec-19 14:40 34.922167 -120.464109 144 5022ft 185kts
29-Dec-19 14:41 34.887756 -120.431308 144 5023ft 186kts
29-Dec-19 14:42 34.851464 -120.396763 144 5022ft 186kts
29-Dec-19 14:43 34.812633 -120.359838 144 5018ft 187kts
29-Dec-19 14:44 34.769287 -120.318666 144 5009ft 187kts
29-Dec-19 14:45 34.720657 -120.271653 144 4999ft 187kts
29-Dec-19 14:47 34.679097 -120.232045 144 4994ft 187kts
29-Dec-19 14:48 34.638222 -120.193350 145 4994ft 186kts
29-Dec-19 14:49 34.597301 -120.154661 144 4994ft 186kts
29-Dec-19 14:50 34.556346 -120.115988 145 4994ft 186kts
29-Dec-19 14:51 34.521582 -120.070058 119 4999ft 189kts
29-Dec-19 14:52 34.497617 -120.013415 124 5000ft 188kts
29-Dec-19 14:53 34.456498 -119.976073 147 4766ft 190kts
29-Dec-19 14:54 34.413151 -119.940075 147 4434ft 187kts
29-Dec-19 14:55 34.403543 -119.886781 85 3733ft 125kts
29-Dec-19 14:56 34.407705 -119.850891 85 2218ft 102kts
29-Dec-19 14:57 34.411082 -119.819076 85 1046ft 73kts
29-Dec-19 14:58 34.425779 -119.810321 308 902ft 72kts
29-Dec-19 14:59 34.427923 -119.834196 265 53ft 72kts
29-Dec-19 15:00 34.428609 -119.841975 347 17ft 0kts
29-Dec-19 15:01 34.430372 -119.840713 69 17ft 17kts
29-Dec-19 15:02 34.432250 -119.836054 356 17ft 0kts

Navigation Log

Ident Type
Flight plan parsing failed, navigation log unavailable